»·PEaware :: N1BM KSNA-KBUR

N1BM :: KSNA-KBUR

FLIGHT INFORMATION

Flight Status: Arrived
Operator: Privately registered:
United States
More flights under this callsign
Pilot: Anonymous 45795 (45795)
Aircraft: CESSNA 172 SKYHAWK
(C172)
More flights by this aircraft type
Origin: KSNA John Wayne-Orange Co
United States
Destination: KBUR Bob Hope-Burbank
United States
More flights between these airports :: More routes between these airports
Route: SLI V23 POPPR SMO125 SMO SMO311 SILEX
File this flight plan on PilotEdge
Remarks: I-3 attempt.
Altitude:
(Current/Filed)
4,000ft
Speed:
(Current/Filed)
115kts
Departed: 12-Feb-24 09:48 PM
Arrived: 12-Feb-24 10:27 PM
Distance/Time
Traveled:
40nm/0:39
Distance/Time
To Go:
Arrived

Flight Plot

Page will automatically refresh every two minutes.


Map Options




Map Legend


Flown Route
Filed Route
Departure Airport
Arrival Airport
Navaid (VOR, NDB)
Fix

Horizontal Profiles

Position Reports

Time Latitude Longitude Heading Altitude Ground
Speed
12-Feb-24 21:16 33.673573 -117.872565 297 50ft 0kts
12-Feb-24 21:18 33.673573 -117.872565 297 50ft 0kts
12-Feb-24 21:18 33.673573 -117.872565 297 50ft 0kts
12-Feb-24 21:19 33.673573 -117.872565 297 50ft 0kts
12-Feb-24 21:20 33.673573 -117.872565 297 50ft 0kts
12-Feb-24 21:21 33.673573 -117.872565 297 50ft 0kts
12-Feb-24 21:22 33.673573 -117.872565 297 50ft 0kts
12-Feb-24 21:23 33.673573 -117.872565 297 50ft 0kts
12-Feb-24 21:24 33.673573 -117.872565 297 50ft 0kts
12-Feb-24 21:25 33.673573 -117.872565 297 50ft 0kts
12-Feb-24 21:26 33.673573 -117.872565 297 50ft 0kts
12-Feb-24 21:27 33.673573 -117.872565 297 50ft 0kts
12-Feb-24 21:28 33.673573 -117.872565 297 50ft 0kts
12-Feb-24 21:29 33.673573 -117.872565 297 50ft 0kts
12-Feb-24 21:30 33.673573 -117.872565 297 50ft 0kts
12-Feb-24 21:31 33.673573 -117.872565 297 50ft 0kts
12-Feb-24 21:32 33.673573 -117.872565 297 50ft 0kts
12-Feb-24 21:33 33.673573 -117.872565 297 50ft 0kts
12-Feb-24 21:34 33.673573 -117.872565 297 50ft 0kts
12-Feb-24 21:35 33.673573 -117.872565 297 50ft 0kts
12-Feb-24 21:36 33.673573 -117.872565 297 50ft 0kts
12-Feb-24 21:37 33.673573 -117.872565 297 50ft 0kts
12-Feb-24 21:38 33.673573 -117.872565 297 50ft 0kts
12-Feb-24 21:39 33.673573 -117.872565 297 50ft 0kts
12-Feb-24 21:40 33.673573 -117.872565 297 50ft 0kts
12-Feb-24 21:41 33.673930 -117.871480 42 50ft 13kts
12-Feb-24 21:42 33.678676 -117.868454 26 46ft 26kts
12-Feb-24 21:43 33.681166 -117.866299 114 40ft 0kts
12-Feb-24 21:44 33.681166 -117.866299 114 40ft 0kts
12-Feb-24 21:45 33.681166 -117.866299 114 40ft 0kts
12-Feb-24 21:46 33.679946 -117.866117 207 42ft 37kts
12-Feb-24 21:47 33.661171 -117.879849 230 517ft 84kts
12-Feb-24 21:48 33.645856 -117.902137 233 1156ft 86kts
12-Feb-24 21:49 33.630494 -117.924616 233 1772ft 87kts
12-Feb-24 21:50 33.614864 -117.947282 234 2360ft 88kts
12-Feb-24 21:51 33.617041 -117.974004 293 2918ft 85kts
12-Feb-24 21:52 33.626127 -118.000485 291 3452ft 86kts
12-Feb-24 21:53 33.635324 -118.027393 292 3946ft 90kts
12-Feb-24 21:54 33.646652 -118.060257 293 3959ft 115kts
12-Feb-24 21:55 33.659120 -118.096222 293 3958ft 117kts
12-Feb-24 21:56 33.677694 -118.127291 320 3957ft 118kts
12-Feb-24 21:57 33.704074 -118.151277 322 3958ft 118kts
12-Feb-24 21:58 33.730194 -118.175752 321 3958ft 118kts
12-Feb-24 21:59 33.755807 -118.200563 320 3957ft 118kts
12-Feb-24 22:00 33.781252 -118.225464 320 3957ft 118kts
12-Feb-24 22:01 33.806587 -118.250696 320 3959ft 118kts
12-Feb-24 22:02 33.831839 -118.275896 319 3976ft 117kts
12-Feb-24 22:03 33.857095 -118.301145 319 3975ft 118kts
12-Feb-24 22:04 33.882545 -118.326882 318 3974ft 121kts
12-Feb-24 22:05 33.908472 -118.352872 320 3974ft 121kts
12-Feb-24 22:06 33.934366 -118.379037 316 3975ft 122kts
12-Feb-24 22:07 33.959774 -118.405535 317 3973ft 119kts
12-Feb-24 22:08 33.985007 -118.431352 318 3974ft 118kts
12-Feb-24 22:09 34.010106 -118.456305 318 3974ft 116kts
12-Feb-24 22:10 34.033127 -118.483392 310 3969ft 115kts
12-Feb-24 22:11 34.054321 -118.512232 310 3968ft 114kts
12-Feb-24 22:12 34.075751 -118.540837 310 3969ft 114kts
12-Feb-24 22:13 34.096991 -118.569665 311 3966ft 114kts
12-Feb-24 22:14 34.118408 -118.598358 311 3965ft 114kts
12-Feb-24 22:15 34.139889 -118.627311 311 3965ft 114kts
12-Feb-24 22:16 34.161992 -118.654955 339 3954ft 115kts
12-Feb-24 22:17 34.192522 -118.644322 44 3959ft 119kts
12-Feb-24 22:18 34.200486 -118.606598 89 3803ft 118kts
12-Feb-24 22:19 34.200100 -118.569271 87 3564ft 101kts
12-Feb-24 22:20 34.200045 -118.536971 88 3440ft 106kts
12-Feb-24 22:21 34.199522 -118.500098 88 2980ft 116kts
12-Feb-24 22:22 34.199063 -118.462231 89 2375ft 93kts
12-Feb-24 22:23 34.198719 -118.432638 90 1799ft 92kts
12-Feb-24 22:24 34.198302 -118.403793 86 1320ft 83kts
12-Feb-24 22:25 34.198020 -118.375561 88 884ft 83kts
12-Feb-24 22:26 34.197760 -118.360710 72 716ft 18kts
12-Feb-24 22:27 34.198616 -118.360263 8 717ft 0kts
12-Feb-24 22:28 34.199433 -118.360076 0 720ft 0kts

Navigation Log

Ident Type
Flight plan parsing failed, navigation log unavailable